<?xml version="1.0" encoding="UTF-8" standalone="no" ?>
<gpx xmlns="http://www.topografix.com/GPX/1/1" xmlns:xsi="http://www.w3.org/2001/XMLSchema-instance" xsi:schemaLocation="http://www.topografix.com/GPX/1/1 http://www.topografix.com/GPX/1/1/gpx.xsd" version="1.1" creator="VisuGPX - https://www.visugpx.com">
  <metadata>
    <name>Lacépède 10.4 km</name>
  </metadata>
  <trk>
    <name><![CDATA[Pierre_NARFIT_2024-07-15_08-59-14]]></name>
    <extensions>
      <line xmlns="http://www.topografix.com/GPX/gpx_style/0/2">
        <color>0000FF</color>
        <width>4</width>
      </line>
    </extensions>
    <trkseg>
      <trkpt lat="44.31452" lon="0.46544">
        <ele>90.4</ele>
        <time>2024-07-15T06:59:50.013Z</time>
      </trkpt>
      <trkpt lat="44.31451" lon="0.46541">
        <ele>90.2</ele>
        <time>2024-07-15T07:00:26.181Z</time>
      </trkpt>
      <trkpt lat="44.31455" lon="0.46527">
        <ele>90.1</ele>
        <time>2024-07-15T07:00:38.181Z</time>
      </trkpt>
      <trkpt lat="44.31461" lon="0.46498">
        <ele>90.2</ele>
        <time>2024-07-15T07:01:04.294Z</time>
      </trkpt>
      <trkpt lat="44.31476" lon="0.46481">
        <ele>90.7</ele>
        <time>2024-07-15T07:01:30.294Z</time>
      </trkpt>
      <trkpt lat="44.31481" lon="0.4646">
        <ele>90.5</ele>
        <time>2024-07-15T07:01:46.294Z</time>
      </trkpt>
      <trkpt lat="44.31481" lon="0.46402">
        <ele>90.1</ele>
        <time>2024-07-15T07:02:26.294Z</time>
      </trkpt>
      <trkpt lat="44.31479" lon="0.46394">
        <ele>89.9</ele>
        <time>2024-07-15T07:02:34.294Z</time>
      </trkpt>
      <trkpt lat="44.31473" lon="0.46394">
        <ele>89.2</ele>
        <time>2024-07-15T07:02:46.294Z</time>
      </trkpt>
      <trkpt lat="44.31471" lon="0.46396">
        <ele>89.2</ele>
        <time>2024-07-15T07:02:58.753Z</time>
      </trkpt>
      <trkpt lat="44.3147" lon="0.46397">
        <ele>89.2</ele>
        <time>2024-07-15T07:03:04.752Z</time>
      </trkpt>
      <trkpt lat="44.31462" lon="0.46395">
        <ele>89</ele>
        <time>2024-07-15T07:03:14.752Z</time>
      </trkpt>
      <trkpt lat="44.31426" lon="0.46399">
        <ele>88.7</ele>
        <time>2024-07-15T07:03:46.752Z</time>
      </trkpt>
      <trkpt lat="44.31407" lon="0.46406">
        <ele>88.9</ele>
        <time>2024-07-15T07:04:07.209Z</time>
      </trkpt>
      <trkpt lat="44.31391" lon="0.46408">
        <ele>88.6</ele>
        <time>2024-07-15T07:04:23.209Z</time>
      </trkpt>
      <trkpt lat="44.31379" lon="0.46413">
        <ele>89.3</ele>
        <time>2024-07-15T07:04:39.209Z</time>
      </trkpt>
      <trkpt lat="44.31163" lon="0.46464">
        <ele>88.9</ele>
        <time>2024-07-15T07:07:43.209Z</time>
      </trkpt>
      <trkpt lat="44.31155" lon="0.4647">
        <ele>89.4</ele>
        <time>2024-07-15T07:07:51.209Z</time>
      </trkpt>
      <trkpt lat="44.31134" lon="0.46466">
        <ele>90.3</ele>
        <time>2024-07-15T07:08:41.732Z</time>
      </trkpt>
      <trkpt lat="44.31163" lon="0.46439">
        <ele>88.5</ele>
        <time>2024-07-15T07:09:13.732Z</time>
      </trkpt>
      <trkpt lat="44.31353" lon="0.46282">
        <ele>77.3</ele>
        <time>2024-07-15T07:12:39.699Z</time>
      </trkpt>
      <trkpt lat="44.31348" lon="0.46189">
        <ele>77.1</ele>
        <time>2024-07-15T07:13:51.699Z</time>
      </trkpt>
      <trkpt lat="44.3135" lon="0.4608">
        <ele>77.4</ele>
        <time>2024-07-15T07:14:55.699Z</time>
      </trkpt>
      <trkpt lat="44.31362" lon="0.46025">
        <ele>77</ele>
        <time>2024-07-15T07:15:27.699Z</time>
      </trkpt>
      <trkpt lat="44.31366" lon="0.46014">
        <ele>76.8</ele>
        <time>2024-07-15T07:15:35.699Z</time>
      </trkpt>
      <trkpt lat="44.31374" lon="0.45993">
        <ele>76.5</ele>
        <time>2024-07-15T07:16:00.139Z</time>
      </trkpt>
      <trkpt lat="44.31379" lon="0.45934">
        <ele>76.4</ele>
        <time>2024-07-15T07:16:54.206Z</time>
      </trkpt>
      <trkpt lat="44.31366" lon="0.45931">
        <ele>76.8</ele>
        <time>2024-07-15T07:17:10.206Z</time>
      </trkpt>
      <trkpt lat="44.3129" lon="0.45908">
        <ele>81.1</ele>
        <time>2024-07-15T07:18:27.803Z</time>
      </trkpt>
      <trkpt lat="44.31284" lon="0.45898">
        <ele>81.6</ele>
        <time>2024-07-15T07:18:35.803Z</time>
      </trkpt>
      <trkpt lat="44.31283" lon="0.45884">
        <ele>81.8</ele>
        <time>2024-07-15T07:18:43.803Z</time>
      </trkpt>
      <trkpt lat="44.31287" lon="0.45812">
        <ele>83.1</ele>
        <time>2024-07-15T07:19:23.803Z</time>
      </trkpt>
      <trkpt lat="44.31285" lon="0.458">
        <ele>83.5</ele>
        <time>2024-07-15T07:19:31.803Z</time>
      </trkpt>
      <trkpt lat="44.31279" lon="0.45794">
        <ele>83.9</ele>
        <time>2024-07-15T07:19:39.803Z</time>
      </trkpt>
      <trkpt lat="44.31264" lon="0.45793">
        <ele>84.8</ele>
        <time>2024-07-15T07:19:55.803Z</time>
      </trkpt>
      <trkpt lat="44.31244" lon="0.45789">
        <ele>86</ele>
        <time>2024-07-15T07:20:11.803Z</time>
      </trkpt>
      <trkpt lat="44.31171" lon="0.45755">
        <ele>91.5</ele>
        <time>2024-07-15T07:21:15.803Z</time>
      </trkpt>
      <trkpt lat="44.31119" lon="0.45726">
        <ele>97</ele>
        <time>2024-07-15T07:22:03.803Z</time>
      </trkpt>
      <trkpt lat="44.31085" lon="0.45713">
        <ele>101.1</ele>
        <time>2024-07-15T07:23:21.900Z</time>
      </trkpt>
      <trkpt lat="44.31023" lon="0.45705">
        <ele>110.6</ele>
        <time>2024-07-15T07:24:25.900Z</time>
      </trkpt>
      <trkpt lat="44.31009" lon="0.45707">
        <ele>113.3</ele>
        <time>2024-07-15T07:24:41.900Z</time>
      </trkpt>
      <trkpt lat="44.30993" lon="0.45716">
        <ele>117.1</ele>
        <time>2024-07-15T07:25:05.900Z</time>
      </trkpt>
      <trkpt lat="44.30986" lon="0.45717">
        <ele>119.5</ele>
        <time>2024-07-15T07:25:13.900Z</time>
      </trkpt>
      <trkpt lat="44.30973" lon="0.45712">
        <ele>124.5</ele>
        <time>2024-07-15T07:25:29.900Z</time>
      </trkpt>
      <trkpt lat="44.30958" lon="0.45687">
        <ele>131.2</ele>
        <time>2024-07-15T07:26:01.900Z</time>
      </trkpt>
      <trkpt lat="44.3095" lon="0.4567">
        <ele>134.1</ele>
        <time>2024-07-15T07:26:17.900Z</time>
      </trkpt>
      <trkpt lat="44.30937" lon="0.45625">
        <ele>137</ele>
        <time>2024-07-15T07:27:18.140Z</time>
      </trkpt>
      <trkpt lat="44.30925" lon="0.45539">
        <ele>140</ele>
        <time>2024-07-15T07:28:22.140Z</time>
      </trkpt>
      <trkpt lat="44.30925" lon="0.45528">
        <ele>140.2</ele>
        <time>2024-07-15T07:28:30.140Z</time>
      </trkpt>
      <trkpt lat="44.30924" lon="0.45528">
        <ele>140.4</ele>
        <time>2024-07-15T07:28:41.126Z</time>
      </trkpt>
      <trkpt lat="44.30935" lon="0.45415">
        <ele>141.1</ele>
        <time>2024-07-15T07:30:30.394Z</time>
      </trkpt>
      <trkpt lat="44.30946" lon="0.45398">
        <ele>139.7</ele>
        <time>2024-07-15T07:31:07.593Z</time>
      </trkpt>
      <trkpt lat="44.30972" lon="0.45333">
        <ele>137.1</ele>
        <time>2024-07-15T07:31:55.593Z</time>
      </trkpt>
      <trkpt lat="44.30983" lon="0.45313">
        <ele>134.5</ele>
        <time>2024-07-15T07:32:11.593Z</time>
      </trkpt>
      <trkpt lat="44.30986" lon="0.453">
        <ele>134.2</ele>
        <time>2024-07-15T07:32:19.593Z</time>
      </trkpt>
      <trkpt lat="44.30991" lon="0.45289">
        <ele>133.1</ele>
        <time>2024-07-15T07:32:27.593Z</time>
      </trkpt>
      <trkpt lat="44.30999" lon="0.45281">
        <ele>131.2</ele>
        <time>2024-07-15T07:32:35.593Z</time>
      </trkpt>
      <trkpt lat="44.31021" lon="0.45235">
        <ele>127.8</ele>
        <time>2024-07-15T07:33:07.593Z</time>
      </trkpt>
      <trkpt lat="44.31032" lon="0.45219">
        <ele>126.1</ele>
        <time>2024-07-15T07:33:23.593Z</time>
      </trkpt>
      <trkpt lat="44.31047" lon="0.45207">
        <ele>123.6</ele>
        <time>2024-07-15T07:33:39.593Z</time>
      </trkpt>
      <trkpt lat="44.31061" lon="0.45202">
        <ele>120.9</ele>
        <time>2024-07-15T07:34:01.726Z</time>
      </trkpt>
      <trkpt lat="44.31071" lon="0.45203">
        <ele>118.8</ele>
        <time>2024-07-15T07:34:09.726Z</time>
      </trkpt>
      <trkpt lat="44.31079" lon="0.452">
        <ele>117.4</ele>
        <time>2024-07-15T07:34:17.726Z</time>
      </trkpt>
      <trkpt lat="44.3109" lon="0.45202">
        <ele>115.4</ele>
        <time>2024-07-15T07:34:25.726Z</time>
      </trkpt>
      <trkpt lat="44.31106" lon="0.4521">
        <ele>112.2</ele>
        <time>2024-07-15T07:34:41.726Z</time>
      </trkpt>
      <trkpt lat="44.31125" lon="0.45216">
        <ele>109.1</ele>
        <time>2024-07-15T07:34:57.726Z</time>
      </trkpt>
      <trkpt lat="44.31133" lon="0.45215">
        <ele>107.9</ele>
        <time>2024-07-15T07:35:05.726Z</time>
      </trkpt>
      <trkpt lat="44.3124" lon="0.45163">
        <ele>96.5</ele>
        <time>2024-07-15T07:36:41.726Z</time>
      </trkpt>
      <trkpt lat="44.31259" lon="0.45156">
        <ele>94.5</ele>
        <time>2024-07-15T07:36:57.726Z</time>
      </trkpt>
      <trkpt lat="44.31277" lon="0.45158">
        <ele>93.5</ele>
        <time>2024-07-15T07:37:13.726Z</time>
      </trkpt>
      <trkpt lat="44.3139" lon="0.45201">
        <ele>85.2</ele>
        <time>2024-07-15T07:38:53.726Z</time>
      </trkpt>
      <trkpt lat="44.31397" lon="0.45195">
        <ele>84.2</ele>
        <time>2024-07-15T07:39:01.726Z</time>
      </trkpt>
      <trkpt lat="44.31417" lon="0.45131">
        <ele>80.3</ele>
        <time>2024-07-15T07:40:31.739Z</time>
      </trkpt>
      <trkpt lat="44.31467" lon="0.45049">
        <ele>82.9</ele>
        <time>2024-07-15T07:42:25.266Z</time>
      </trkpt>
      <trkpt lat="44.31474" lon="0.45043">
        <ele>83.4</ele>
        <time>2024-07-15T07:42:33.266Z</time>
      </trkpt>
      <trkpt lat="44.31503" lon="0.44995">
        <ele>85.1</ele>
        <time>2024-07-15T07:43:13.266Z</time>
      </trkpt>
      <trkpt lat="44.31508" lon="0.4497">
        <ele>86.1</ele>
        <time>2024-07-15T07:43:29.266Z</time>
      </trkpt>
      <trkpt lat="44.31506" lon="0.44922">
        <ele>88.6</ele>
        <time>2024-07-15T07:44:01.266Z</time>
      </trkpt>
      <trkpt lat="44.31513" lon="0.44879">
        <ele>88.2</ele>
        <time>2024-07-15T07:44:58.778Z</time>
      </trkpt>
      <trkpt lat="44.31528" lon="0.44808">
        <ele>84</ele>
        <time>2024-07-15T07:45:55.931Z</time>
      </trkpt>
      <trkpt lat="44.31529" lon="0.44754">
        <ele>84</ele>
        <time>2024-07-15T07:47:05.014Z</time>
      </trkpt>
      <trkpt lat="44.31532" lon="0.44733">
        <ele>84.5</ele>
        <time>2024-07-15T07:48:02.543Z</time>
      </trkpt>
      <trkpt lat="44.31547" lon="0.44627">
        <ele>95.4</ele>
        <time>2024-07-15T07:49:43.951Z</time>
      </trkpt>
      <trkpt lat="44.31555" lon="0.44594">
        <ele>98.8</ele>
        <time>2024-07-15T07:50:15.951Z</time>
      </trkpt>
      <trkpt lat="44.3156" lon="0.44584">
        <ele>99.9</ele>
        <time>2024-07-15T07:50:38.343Z</time>
      </trkpt>
      <trkpt lat="44.31559" lon="0.44575">
        <ele>100.6</ele>
        <time>2024-07-15T07:51:01.994Z</time>
      </trkpt>
      <trkpt lat="44.31559" lon="0.44552">
        <ele>102.3</ele>
        <time>2024-07-15T07:53:24.170Z</time>
      </trkpt>
      <trkpt lat="44.31568" lon="0.4453">
        <ele>103.8</ele>
        <time>2024-07-15T07:53:48.170Z</time>
      </trkpt>
      <trkpt lat="44.31575" lon="0.44516">
        <ele>104.4</ele>
        <time>2024-07-15T07:54:04.171Z</time>
      </trkpt>
      <trkpt lat="44.31574" lon="0.44498">
        <ele>105</ele>
        <time>2024-07-15T07:54:25.662Z</time>
      </trkpt>
      <trkpt lat="44.3158" lon="0.44472">
        <ele>105.1</ele>
        <time>2024-07-15T07:54:49.777Z</time>
      </trkpt>
      <trkpt lat="44.31585" lon="0.44465">
        <ele>105.2</ele>
        <time>2024-07-15T07:55:01.777Z</time>
      </trkpt>
      <trkpt lat="44.31593" lon="0.44465">
        <ele>104.8</ele>
        <time>2024-07-15T07:55:09.777Z</time>
      </trkpt>
      <trkpt lat="44.31602" lon="0.44469">
        <ele>104.4</ele>
        <time>2024-07-15T07:55:17.777Z</time>
      </trkpt>
      <trkpt lat="44.31605" lon="0.44468">
        <ele>104.2</ele>
        <time>2024-07-15T07:55:21.777Z</time>
      </trkpt>
      <trkpt lat="44.31616" lon="0.44464">
        <ele>103.7</ele>
        <time>2024-07-15T07:56:20.684Z</time>
      </trkpt>
      <trkpt lat="44.3162" lon="0.44423">
        <ele>103.7</ele>
        <time>2024-07-15T07:56:58.106Z</time>
      </trkpt>
      <trkpt lat="44.31616" lon="0.44345">
        <ele>104.2</ele>
        <time>2024-07-15T07:57:46.106Z</time>
      </trkpt>
      <trkpt lat="44.31631" lon="0.44228">
        <ele>101.4</ele>
        <time>2024-07-15T07:58:58.106Z</time>
      </trkpt>
      <trkpt lat="44.31636" lon="0.44217">
        <ele>101</ele>
        <time>2024-07-15T07:59:06.106Z</time>
      </trkpt>
      <trkpt lat="44.31645" lon="0.44214">
        <ele>100.5</ele>
        <time>2024-07-15T07:59:14.106Z</time>
      </trkpt>
      <trkpt lat="44.31685" lon="0.44219">
        <ele>98.7</ele>
        <time>2024-07-15T08:00:08.279Z</time>
      </trkpt>
      <trkpt lat="44.31693" lon="0.44223">
        <ele>98.2</ele>
        <time>2024-07-15T08:00:16.279Z</time>
      </trkpt>
      <trkpt lat="44.31702" lon="0.44224">
        <ele>98.1</ele>
        <time>2024-07-15T08:00:24.279Z</time>
      </trkpt>
      <trkpt lat="44.31707" lon="0.4422">
        <ele>98</ele>
        <time>2024-07-15T08:00:32.279Z</time>
      </trkpt>
      <trkpt lat="44.31723" lon="0.44178">
        <ele>97.4</ele>
        <time>2024-07-15T08:01:09.672Z</time>
      </trkpt>
      <trkpt lat="44.31737" lon="0.44132">
        <ele>95.2</ele>
        <time>2024-07-15T08:01:41.672Z</time>
      </trkpt>
      <trkpt lat="44.31808" lon="0.4396">
        <ele>89.9</ele>
        <time>2024-07-15T08:03:49.672Z</time>
      </trkpt>
      <trkpt lat="44.31835" lon="0.43911">
        <ele>87.9</ele>
        <time>2024-07-15T08:04:29.672Z</time>
      </trkpt>
      <trkpt lat="44.31847" lon="0.43898">
        <ele>87.2</ele>
        <time>2024-07-15T08:04:45.672Z</time>
      </trkpt>
      <trkpt lat="44.31856" lon="0.43883">
        <ele>86.3</ele>
        <time>2024-07-15T08:05:01.672Z</time>
      </trkpt>
      <trkpt lat="44.31868" lon="0.43869">
        <ele>85.6</ele>
        <time>2024-07-15T08:05:17.672Z</time>
      </trkpt>
      <trkpt lat="44.3188" lon="0.43851">
        <ele>84.6</ele>
        <time>2024-07-15T08:05:33.672Z</time>
      </trkpt>
      <trkpt lat="44.31905" lon="0.43823">
        <ele>83.2</ele>
        <time>2024-07-15T08:06:05.672Z</time>
      </trkpt>
      <trkpt lat="44.31947" lon="0.43767">
        <ele>79.9</ele>
        <time>2024-07-15T08:07:09.672Z</time>
      </trkpt>
      <trkpt lat="44.31985" lon="0.4372">
        <ele>77.5</ele>
        <time>2024-07-15T08:08:18.113Z</time>
      </trkpt>
      <trkpt lat="44.3199" lon="0.43709">
        <ele>76.9</ele>
        <time>2024-07-15T08:09:43.533Z</time>
      </trkpt>
      <trkpt lat="44.31999" lon="0.43702">
        <ele>76.3</ele>
        <time>2024-07-15T08:09:51.533Z</time>
      </trkpt>
      <trkpt lat="44.32004" lon="0.43693">
        <ele>75.8</ele>
        <time>2024-07-15T08:09:59.533Z</time>
      </trkpt>
      <trkpt lat="44.3201" lon="0.4367">
        <ele>74.8</ele>
        <time>2024-07-15T08:10:16.982Z</time>
      </trkpt>
      <trkpt lat="44.3204" lon="0.43637">
        <ele>72.5</ele>
        <time>2024-07-15T08:10:54.361Z</time>
      </trkpt>
      <trkpt lat="44.32125" lon="0.4353">
        <ele>67.6</ele>
        <time>2024-07-15T08:12:30.362Z</time>
      </trkpt>
      <trkpt lat="44.32181" lon="0.43467">
        <ele>65</ele>
        <time>2024-07-15T08:13:34.362Z</time>
      </trkpt>
      <trkpt lat="44.32303" lon="0.43357">
        <ele>62.1</ele>
        <time>2024-07-15T08:15:42.362Z</time>
      </trkpt>
      <trkpt lat="44.32333" lon="0.43327">
        <ele>61.8</ele>
        <time>2024-07-15T08:16:14.362Z</time>
      </trkpt>
      <trkpt lat="44.32386" lon="0.43259">
        <ele>61</ele>
        <time>2024-07-15T08:17:18.362Z</time>
      </trkpt>
      <trkpt lat="44.324" lon="0.43244">
        <ele>60.9</ele>
        <time>2024-07-15T08:17:34.362Z</time>
      </trkpt>
      <trkpt lat="44.32408" lon="0.4325">
        <ele>61</ele>
        <time>2024-07-15T08:17:42.362Z</time>
      </trkpt>
      <trkpt lat="44.32435" lon="0.43292">
        <ele>60.7</ele>
        <time>2024-07-15T08:18:14.362Z</time>
      </trkpt>
      <trkpt lat="44.32482" lon="0.43385">
        <ele>60.9</ele>
        <time>2024-07-15T08:19:18.362Z</time>
      </trkpt>
      <trkpt lat="44.32532" lon="0.43477">
        <ele>61</ele>
        <time>2024-07-15T08:21:48.928Z</time>
      </trkpt>
      <trkpt lat="44.32547" lon="0.43492">
        <ele>61</ele>
        <time>2024-07-15T08:22:04.928Z</time>
      </trkpt>
      <trkpt lat="44.32601" lon="0.43565">
        <ele>61</ele>
        <time>2024-07-15T08:23:08.928Z</time>
      </trkpt>
      <trkpt lat="44.3265" lon="0.43644">
        <ele>61.7</ele>
        <time>2024-07-15T08:24:12.928Z</time>
      </trkpt>
      <trkpt lat="44.32739" lon="0.43761">
        <ele>62.6</ele>
        <time>2024-07-15T08:26:31.077Z</time>
      </trkpt>
      <trkpt lat="44.32767" lon="0.43792">
        <ele>63</ele>
        <time>2024-07-15T08:27:03.077Z</time>
      </trkpt>
      <trkpt lat="44.32772" lon="0.43802">
        <ele>63</ele>
        <time>2024-07-15T08:27:11.077Z</time>
      </trkpt>
      <trkpt lat="44.32773" lon="0.43815">
        <ele>63</ele>
        <time>2024-07-15T08:27:19.077Z</time>
      </trkpt>
      <trkpt lat="44.32765" lon="0.43864">
        <ele>63.1</ele>
        <time>2024-07-15T08:27:51.077Z</time>
      </trkpt>
      <trkpt lat="44.32762" lon="0.43933">
        <ele>64</ele>
        <time>2024-07-15T08:28:46.720Z</time>
      </trkpt>
      <trkpt lat="44.32766" lon="0.43979">
        <ele>64.1</ele>
        <time>2024-07-15T08:29:18.720Z</time>
      </trkpt>
      <trkpt lat="44.32773" lon="0.44002">
        <ele>64.3</ele>
        <time>2024-07-15T08:29:34.721Z</time>
      </trkpt>
      <trkpt lat="44.32774" lon="0.44026">
        <ele>65</ele>
        <time>2024-07-15T08:29:50.720Z</time>
      </trkpt>
      <trkpt lat="44.32769" lon="0.44076">
        <ele>65</ele>
        <time>2024-07-15T08:30:22.720Z</time>
      </trkpt>
      <trkpt lat="44.32768" lon="0.44175">
        <ele>65.7</ele>
        <time>2024-07-15T08:31:26.720Z</time>
      </trkpt>
      <trkpt lat="44.32763" lon="0.44272">
        <ele>66.4</ele>
        <time>2024-07-15T08:32:30.720Z</time>
      </trkpt>
      <trkpt lat="44.3276" lon="0.44372">
        <ele>67.8</ele>
        <time>2024-07-15T08:33:34.720Z</time>
      </trkpt>
      <trkpt lat="44.32755" lon="0.44421">
        <ele>68.1</ele>
        <time>2024-07-15T08:34:06.720Z</time>
      </trkpt>
      <trkpt lat="44.32755" lon="0.44476">
        <ele>68.7</ele>
        <time>2024-07-15T08:34:56.787Z</time>
      </trkpt>
      <trkpt lat="44.32748" lon="0.44488">
        <ele>68.5</ele>
        <time>2024-07-15T08:35:27.325Z</time>
      </trkpt>
      <trkpt lat="44.32742" lon="0.44505">
        <ele>67.8</ele>
        <time>2024-07-15T08:35:43.325Z</time>
      </trkpt>
      <trkpt lat="44.32743" lon="0.44504">
        <ele>67.8</ele>
        <time>2024-07-15T08:36:03.840Z</time>
      </trkpt>
      <trkpt lat="44.3272" lon="0.44579">
        <ele>61.2</ele>
        <time>2024-07-15T08:37:27.840Z</time>
      </trkpt>
      <trkpt lat="44.32708" lon="0.44601">
        <ele>59.5</ele>
        <time>2024-07-15T08:37:47.840Z</time>
      </trkpt>
      <trkpt lat="44.32694" lon="0.44598">
        <ele>59.5</ele>
        <time>2024-07-15T08:37:59.840Z</time>
      </trkpt>
      <trkpt lat="44.32681" lon="0.44599">
        <ele>59.4</ele>
        <time>2024-07-15T08:38:11.840Z</time>
      </trkpt>
      <trkpt lat="44.32675" lon="0.44622">
        <ele>59</ele>
        <time>2024-07-15T08:39:39.043Z</time>
      </trkpt>
      <trkpt lat="44.32669" lon="0.44645">
        <ele>59.2</ele>
        <time>2024-07-15T08:39:55.043Z</time>
      </trkpt>
      <trkpt lat="44.32631" lon="0.44748">
        <ele>65.4</ele>
        <time>2024-07-15T08:41:15.043Z</time>
      </trkpt>
      <trkpt lat="44.32611" lon="0.4478">
        <ele>69.1</ele>
        <time>2024-07-15T08:41:47.043Z</time>
      </trkpt>
      <trkpt lat="44.32576" lon="0.44851">
        <ele>74.6</ele>
        <time>2024-07-15T08:42:51.043Z</time>
      </trkpt>
      <trkpt lat="44.32556" lon="0.44887">
        <ele>76.9</ele>
        <time>2024-07-15T08:43:23.043Z</time>
      </trkpt>
      <trkpt lat="44.32535" lon="0.44932">
        <ele>81.1</ele>
        <time>2024-07-15T08:44:03.043Z</time>
      </trkpt>
      <trkpt lat="44.32536" lon="0.44941">
        <ele>81.7</ele>
        <time>2024-07-15T08:45:10.199Z</time>
      </trkpt>
      <trkpt lat="44.32538" lon="0.44945">
        <ele>82</ele>
        <time>2024-07-15T08:45:14.199Z</time>
      </trkpt>
      <trkpt lat="44.3258" lon="0.44965">
        <ele>83.6</ele>
        <time>2024-07-15T08:45:54.200Z</time>
      </trkpt>
      <trkpt lat="44.32594" lon="0.4498">
        <ele>84.3</ele>
        <time>2024-07-15T08:46:10.199Z</time>
      </trkpt>
      <trkpt lat="44.32607" lon="0.45002">
        <ele>85.6</ele>
        <time>2024-07-15T08:46:34.199Z</time>
      </trkpt>
      <trkpt lat="44.32609" lon="0.45014">
        <ele>85.9</ele>
        <time>2024-07-15T08:46:42.199Z</time>
      </trkpt>
      <trkpt lat="44.32606" lon="0.45022">
        <ele>85.9</ele>
        <time>2024-07-15T08:47:03.708Z</time>
      </trkpt>
      <trkpt lat="44.32589" lon="0.45038">
        <ele>86.7</ele>
        <time>2024-07-15T08:47:27.708Z</time>
      </trkpt>
      <trkpt lat="44.32549" lon="0.45096">
        <ele>88.3</ele>
        <time>2024-07-15T08:48:38.450Z</time>
      </trkpt>
      <trkpt lat="44.32533" lon="0.4511">
        <ele>88.2</ele>
        <time>2024-07-15T08:48:54.450Z</time>
      </trkpt>
      <trkpt lat="44.32516" lon="0.45117">
        <ele>88.8</ele>
        <time>2024-07-15T08:49:10.450Z</time>
      </trkpt>
      <trkpt lat="44.32497" lon="0.45119">
        <ele>89.4</ele>
        <time>2024-07-15T08:49:26.450Z</time>
      </trkpt>
      <trkpt lat="44.32472" lon="0.45116">
        <ele>90.2</ele>
        <time>2024-07-15T08:50:07.677Z</time>
      </trkpt>
      <trkpt lat="44.32462" lon="0.45117">
        <ele>90.9</ele>
        <time>2024-07-15T08:50:29.824Z</time>
      </trkpt>
      <trkpt lat="44.32444" lon="0.4511">
        <ele>92</ele>
        <time>2024-07-15T08:53:35.216Z</time>
      </trkpt>
      <trkpt lat="44.32441" lon="0.45136">
        <ele>92.3</ele>
        <time>2024-07-15T08:53:51.216Z</time>
      </trkpt>
      <trkpt lat="44.32436" lon="0.45225">
        <ele>94.6</ele>
        <time>2024-07-15T08:54:55.216Z</time>
      </trkpt>
      <trkpt lat="44.32428" lon="0.45278">
        <ele>96.2</ele>
        <time>2024-07-15T08:55:52.845Z</time>
      </trkpt>
      <trkpt lat="44.32405" lon="0.45345">
        <ele>97.2</ele>
        <time>2024-07-15T08:56:44.845Z</time>
      </trkpt>
      <trkpt lat="44.32402" lon="0.45366">
        <ele>98</ele>
        <time>2024-07-15T08:57:00.845Z</time>
      </trkpt>
      <trkpt lat="44.32397" lon="0.45373">
        <ele>98.4</ele>
        <time>2024-07-15T08:57:08.844Z</time>
      </trkpt>
      <trkpt lat="44.32368" lon="0.45386">
        <ele>99.7</ele>
        <time>2024-07-15T08:57:40.844Z</time>
      </trkpt>
      <trkpt lat="44.32361" lon="0.45391">
        <ele>100</ele>
        <time>2024-07-15T08:57:48.845Z</time>
      </trkpt>
      <trkpt lat="44.32325" lon="0.45404">
        <ele>102.7</ele>
        <time>2024-07-15T08:58:28.844Z</time>
      </trkpt>
      <trkpt lat="44.32315" lon="0.45404">
        <ele>102.9</ele>
        <time>2024-07-15T08:58:44.002Z</time>
      </trkpt>
      <trkpt lat="44.32308" lon="0.45398">
        <ele>102.9</ele>
        <time>2024-07-15T08:58:52.002Z</time>
      </trkpt>
      <trkpt lat="44.323" lon="0.45379">
        <ele>102.3</ele>
        <time>2024-07-15T08:59:08.002Z</time>
      </trkpt>
      <trkpt lat="44.323" lon="0.45365">
        <ele>101.9</ele>
        <time>2024-07-15T08:59:24.002Z</time>
      </trkpt>
      <trkpt lat="44.32308" lon="0.45332">
        <ele>101</ele>
        <time>2024-07-15T08:59:56.002Z</time>
      </trkpt>
      <trkpt lat="44.32326" lon="0.45306">
        <ele>100</ele>
        <time>2024-07-15T09:01:02.224Z</time>
      </trkpt>
      <trkpt lat="44.32331" lon="0.4531">
        <ele>100.1</ele>
        <time>2024-07-15T09:02:09.521Z</time>
      </trkpt>
      <trkpt lat="44.32325" lon="0.45322">
        <ele>100.6</ele>
        <time>2024-07-15T09:05:54.898Z</time>
      </trkpt>
      <trkpt lat="44.32316" lon="0.45338">
        <ele>101.2</ele>
        <time>2024-07-15T09:06:10.898Z</time>
      </trkpt>
      <trkpt lat="44.323" lon="0.45376">
        <ele>102.2</ele>
        <time>2024-07-15T09:07:00.005Z</time>
      </trkpt>
      <trkpt lat="44.32305" lon="0.454">
        <ele>103</ele>
        <time>2024-07-15T09:07:16.005Z</time>
      </trkpt>
      <trkpt lat="44.32309" lon="0.45411">
        <ele>103</ele>
        <time>2024-07-15T09:07:20.005Z</time>
      </trkpt>
      <trkpt lat="44.3231" lon="0.45423">
        <ele>103</ele>
        <time>2024-07-15T09:07:48.005Z</time>
      </trkpt>
      <trkpt lat="44.32315" lon="0.45437">
        <ele>103</ele>
        <time>2024-07-15T09:07:56.005Z</time>
      </trkpt>
      <trkpt lat="44.32313" lon="0.4545">
        <ele>102.9</ele>
        <time>2024-07-15T09:08:04.005Z</time>
      </trkpt>
      <trkpt lat="44.323" lon="0.45498">
        <ele>103</ele>
        <time>2024-07-15T09:08:36.005Z</time>
      </trkpt>
      <trkpt lat="44.32281" lon="0.45541">
        <ele>104.2</ele>
        <time>2024-07-15T09:09:08.005Z</time>
      </trkpt>
      <trkpt lat="44.3227" lon="0.45561">
        <ele>105.3</ele>
        <time>2024-07-15T09:09:24.005Z</time>
      </trkpt>
      <trkpt lat="44.32262" lon="0.45568">
        <ele>105.9</ele>
        <time>2024-07-15T09:10:05.109Z</time>
      </trkpt>
      <trkpt lat="44.32231" lon="0.45607">
        <ele>107.6</ele>
        <time>2024-07-15T09:10:45.109Z</time>
      </trkpt>
      <trkpt lat="44.32232" lon="0.45617">
        <ele>107.5</ele>
        <time>2024-07-15T09:11:48.223Z</time>
      </trkpt>
      <trkpt lat="44.32246" lon="0.45635">
        <ele>105.7</ele>
        <time>2024-07-15T09:12:20.223Z</time>
      </trkpt>
      <trkpt lat="44.32284" lon="0.45703">
        <ele>100.4</ele>
        <time>2024-07-15T09:13:26.551Z</time>
      </trkpt>
      <trkpt lat="44.32307" lon="0.45744">
        <ele>101.5</ele>
        <time>2024-07-15T09:14:08.551Z</time>
      </trkpt>
      <trkpt lat="44.32309" lon="0.4576">
        <ele>101.7</ele>
        <time>2024-07-15T09:14:44.092Z</time>
      </trkpt>
      <trkpt lat="44.32321" lon="0.45769">
        <ele>100.9</ele>
        <time>2024-07-15T09:15:10.225Z</time>
      </trkpt>
      <trkpt lat="44.32332" lon="0.45782">
        <ele>100.1</ele>
        <time>2024-07-15T09:15:26.225Z</time>
      </trkpt>
      <trkpt lat="44.32341" lon="0.45795">
        <ele>99.5</ele>
        <time>2024-07-15T09:15:42.225Z</time>
      </trkpt>
      <trkpt lat="44.32348" lon="0.45811">
        <ele>99</ele>
        <time>2024-07-15T09:16:03.646Z</time>
      </trkpt>
      <trkpt lat="44.32356" lon="0.45823">
        <ele>98.9</ele>
        <time>2024-07-15T09:16:19.646Z</time>
      </trkpt>
      <trkpt lat="44.32406" lon="0.45946">
        <ele>106.6</ele>
        <time>2024-07-15T09:17:55.646Z</time>
      </trkpt>
      <trkpt lat="44.32425" lon="0.45982">
        <ele>111</ele>
        <time>2024-07-15T09:18:27.646Z</time>
      </trkpt>
      <trkpt lat="44.32453" lon="0.46052">
        <ele>117.1</ele>
        <time>2024-07-15T09:19:31.646Z</time>
      </trkpt>
      <trkpt lat="44.32452" lon="0.46061">
        <ele>117.6</ele>
        <time>2024-07-15T09:20:08.046Z</time>
      </trkpt>
      <trkpt lat="44.32378" lon="0.46124">
        <ele>126</ele>
        <time>2024-07-15T09:21:50.416Z</time>
      </trkpt>
      <trkpt lat="44.32359" lon="0.46137">
        <ele>128</ele>
        <time>2024-07-15T09:22:12.416Z</time>
      </trkpt>
      <trkpt lat="44.32369" lon="0.46138">
        <ele>127.3</ele>
        <time>2024-07-15T09:22:30.416Z</time>
      </trkpt>
      <trkpt lat="44.32377" lon="0.46141">
        <ele>127</ele>
        <time>2024-07-15T09:22:38.416Z</time>
      </trkpt>
      <trkpt lat="44.32384" lon="0.46165">
        <ele>126.7</ele>
        <time>2024-07-15T09:23:00.478Z</time>
      </trkpt>
      <trkpt lat="44.32377" lon="0.46171">
        <ele>128.1</ele>
        <time>2024-07-15T09:23:21.865Z</time>
      </trkpt>
      <trkpt lat="44.32338" lon="0.46172">
        <ele>132.9</ele>
        <time>2024-07-15T09:24:09.865Z</time>
      </trkpt>
      <trkpt lat="44.32333" lon="0.46169">
        <ele>133.2</ele>
        <time>2024-07-15T09:24:17.865Z</time>
      </trkpt>
      <trkpt lat="44.32327" lon="0.46169">
        <ele>133.6</ele>
        <time>2024-07-15T09:24:39.313Z</time>
      </trkpt>
      <trkpt lat="44.32318" lon="0.46165">
        <ele>133.9</ele>
        <time>2024-07-15T09:25:00.801Z</time>
      </trkpt>
      <trkpt lat="44.32311" lon="0.46161">
        <ele>134</ele>
        <time>2024-07-15T09:25:04.801Z</time>
      </trkpt>
      <trkpt lat="44.32304" lon="0.46169">
        <ele>135.1</ele>
        <time>2024-07-15T09:25:12.801Z</time>
      </trkpt>
      <trkpt lat="44.32294" lon="0.46182">
        <ele>136</ele>
        <time>2024-07-15T09:26:46.287Z</time>
      </trkpt>
      <trkpt lat="44.32291" lon="0.4619">
        <ele>136.5</ele>
        <time>2024-07-15T09:27:03.345Z</time>
      </trkpt>
      <trkpt lat="44.32293" lon="0.46197">
        <ele>137.3</ele>
        <time>2024-07-15T09:27:11.345Z</time>
      </trkpt>
      <trkpt lat="44.32263" lon="0.46253">
        <ele>143.1</ele>
        <time>2024-07-15T09:28:03.345Z</time>
      </trkpt>
      <trkpt lat="44.3227" lon="0.46271">
        <ele>143.8</ele>
        <time>2024-07-15T09:29:14.559Z</time>
      </trkpt>
      <trkpt lat="44.32268" lon="0.46274">
        <ele>143.9</ele>
        <time>2024-07-15T09:29:35.921Z</time>
      </trkpt>
      <trkpt lat="44.32251" lon="0.46275">
        <ele>143.9</ele>
        <time>2024-07-15T09:29:51.921Z</time>
      </trkpt>
      <trkpt lat="44.32215" lon="0.46262">
        <ele>143.7</ele>
        <time>2024-07-15T09:30:23.921Z</time>
      </trkpt>
      <trkpt lat="44.32164" lon="0.46227">
        <ele>142.5</ele>
        <time>2024-07-15T09:31:19.921Z</time>
      </trkpt>
      <trkpt lat="44.32158" lon="0.46227">
        <ele>143.1</ele>
        <time>2024-07-15T09:31:27.921Z</time>
      </trkpt>
      <trkpt lat="44.32142" lon="0.46237">
        <ele>145.4</ele>
        <time>2024-07-15T09:31:43.921Z</time>
      </trkpt>
      <trkpt lat="44.32127" lon="0.46254">
        <ele>146.7</ele>
        <time>2024-07-15T09:31:59.921Z</time>
      </trkpt>
      <trkpt lat="44.32117" lon="0.46259">
        <ele>146.7</ele>
        <time>2024-07-15T09:32:11.921Z</time>
      </trkpt>
      <trkpt lat="44.32102" lon="0.4625">
        <ele>146.3</ele>
        <time>2024-07-15T09:32:27.921Z</time>
      </trkpt>
      <trkpt lat="44.32096" lon="0.46242">
        <ele>146.1</ele>
        <time>2024-07-15T09:32:42.054Z</time>
      </trkpt>
      <trkpt lat="44.32093" lon="0.46242">
        <ele>146.3</ele>
        <time>2024-07-15T09:32:46.054Z</time>
      </trkpt>
      <trkpt lat="44.3209" lon="0.46246">
        <ele>146.6</ele>
        <time>2024-07-15T09:32:50.054Z</time>
      </trkpt>
      <trkpt lat="44.32079" lon="0.4625">
        <ele>147.3</ele>
        <time>2024-07-15T09:32:58.054Z</time>
      </trkpt>
      <trkpt lat="44.32047" lon="0.46273">
        <ele>149.5</ele>
        <time>2024-07-15T09:33:30.054Z</time>
      </trkpt>
      <trkpt lat="44.32018" lon="0.46302">
        <ele>151</ele>
        <time>2024-07-15T09:34:02.054Z</time>
      </trkpt>
      <trkpt lat="44.31985" lon="0.46365">
        <ele>151.6</ele>
        <time>2024-07-15T09:34:50.054Z</time>
      </trkpt>
      <trkpt lat="44.31968" lon="0.46383">
        <ele>150.9</ele>
        <time>2024-07-15T09:35:10.054Z</time>
      </trkpt>
      <trkpt lat="44.31957" lon="0.46401">
        <ele>149.9</ele>
        <time>2024-07-15T09:35:26.054Z</time>
      </trkpt>
      <trkpt lat="44.31946" lon="0.46411">
        <ele>148.8</ele>
        <time>2024-07-15T09:35:42.054Z</time>
      </trkpt>
      <trkpt lat="44.31939" lon="0.46421">
        <ele>148.4</ele>
        <time>2024-07-15T09:36:36.694Z</time>
      </trkpt>
      <trkpt lat="44.31939" lon="0.4642">
        <ele>148.4</ele>
        <time>2024-07-15T09:37:23.474Z</time>
      </trkpt>
      <trkpt lat="44.31876" lon="0.46453">
        <ele>145</ele>
        <time>2024-07-15T09:38:19.474Z</time>
      </trkpt>
      <trkpt lat="44.31866" lon="0.46455">
        <ele>144.5</ele>
        <time>2024-07-15T09:38:27.474Z</time>
      </trkpt>
      <trkpt lat="44.31855" lon="0.46455">
        <ele>144</ele>
        <time>2024-07-15T09:38:35.474Z</time>
      </trkpt>
      <trkpt lat="44.31845" lon="0.46451">
        <ele>143.6</ele>
        <time>2024-07-15T09:38:43.474Z</time>
      </trkpt>
      <trkpt lat="44.31817" lon="0.4645">
        <ele>143.3</ele>
        <time>2024-07-15T09:39:07.474Z</time>
      </trkpt>
      <trkpt lat="44.31788" lon="0.46443">
        <ele>142.2</ele>
        <time>2024-07-15T09:39:39.474Z</time>
      </trkpt>
      <trkpt lat="44.31785" lon="0.46446">
        <ele>142.3</ele>
        <time>2024-07-15T09:40:18.759Z</time>
      </trkpt>
      <trkpt lat="44.31774" lon="0.4645">
        <ele>142</ele>
        <time>2024-07-15T09:40:34.759Z</time>
      </trkpt>
      <trkpt lat="44.31757" lon="0.46466">
        <ele>143</ele>
        <time>2024-07-15T09:40:50.759Z</time>
      </trkpt>
      <trkpt lat="44.31745" lon="0.46484">
        <ele>143.2</ele>
        <time>2024-07-15T09:41:06.759Z</time>
      </trkpt>
      <trkpt lat="44.3173" lon="0.46533">
        <ele>144.5</ele>
        <time>2024-07-15T09:41:38.759Z</time>
      </trkpt>
      <trkpt lat="44.31717" lon="0.46554">
        <ele>144.1</ele>
        <time>2024-07-15T09:41:54.759Z</time>
      </trkpt>
      <trkpt lat="44.31683" lon="0.46584">
        <ele>141.6</ele>
        <time>2024-07-15T09:42:26.759Z</time>
      </trkpt>
      <trkpt lat="44.3167" lon="0.46603">
        <ele>141.8</ele>
        <time>2024-07-15T09:42:42.759Z</time>
      </trkpt>
      <trkpt lat="44.31662" lon="0.46623">
        <ele>142.2</ele>
        <time>2024-07-15T09:42:58.759Z</time>
      </trkpt>
      <trkpt lat="44.3165" lon="0.46643">
        <ele>141.2</ele>
        <time>2024-07-15T09:43:14.759Z</time>
      </trkpt>
      <trkpt lat="44.3164" lon="0.46689">
        <ele>142.7</ele>
        <time>2024-07-15T09:43:46.759Z</time>
      </trkpt>
      <trkpt lat="44.31619" lon="0.46729">
        <ele>140</ele>
        <time>2024-07-15T09:44:18.759Z</time>
      </trkpt>
      <trkpt lat="44.31608" lon="0.46777">
        <ele>140.8</ele>
        <time>2024-07-15T09:44:50.759Z</time>
      </trkpt>
      <trkpt lat="44.31598" lon="0.46799">
        <ele>140</ele>
        <time>2024-07-15T09:45:06.759Z</time>
      </trkpt>
      <trkpt lat="44.31576" lon="0.46833">
        <ele>138.4</ele>
        <time>2024-07-15T09:45:38.759Z</time>
      </trkpt>
      <trkpt lat="44.31571" lon="0.46843">
        <ele>137.5</ele>
        <time>2024-07-15T09:45:46.759Z</time>
      </trkpt>
      <trkpt lat="44.31566" lon="0.46872">
        <ele>137.3</ele>
        <time>2024-07-15T09:46:02.759Z</time>
      </trkpt>
      <trkpt lat="44.31565" lon="0.46899">
        <ele>138.3</ele>
        <time>2024-07-15T09:46:18.759Z</time>
      </trkpt>
      <trkpt lat="44.31562" lon="0.46921">
        <ele>138.3</ele>
        <time>2024-07-15T09:46:34.758Z</time>
      </trkpt>
      <trkpt lat="44.31549" lon="0.46943">
        <ele>136.7</ele>
        <time>2024-07-15T09:46:50.759Z</time>
      </trkpt>
      <trkpt lat="44.31516" lon="0.46981">
        <ele>132.1</ele>
        <time>2024-07-15T09:47:22.759Z</time>
      </trkpt>
      <trkpt lat="44.31504" lon="0.47003">
        <ele>130.7</ele>
        <time>2024-07-15T09:47:38.759Z</time>
      </trkpt>
      <trkpt lat="44.31499" lon="0.47027">
        <ele>130.6</ele>
        <time>2024-07-15T09:47:54.759Z</time>
      </trkpt>
      <trkpt lat="44.31499" lon="0.47057">
        <ele>130.9</ele>
        <time>2024-07-15T09:48:14.759Z</time>
      </trkpt>
      <trkpt lat="44.31509" lon="0.47082">
        <ele>133.9</ele>
        <time>2024-07-15T09:48:30.759Z</time>
      </trkpt>
      <trkpt lat="44.31519" lon="0.47119">
        <ele>136</ele>
        <time>2024-07-15T09:48:54.759Z</time>
      </trkpt>
      <trkpt lat="44.31518" lon="0.47144">
        <ele>135.9</ele>
        <time>2024-07-15T09:49:10.759Z</time>
      </trkpt>
      <trkpt lat="44.31515" lon="0.47158">
        <ele>135.2</ele>
        <time>2024-07-15T09:49:18.759Z</time>
      </trkpt>
      <trkpt lat="44.31511" lon="0.47213">
        <ele>133</ele>
        <time>2024-07-15T09:49:58.759Z</time>
      </trkpt>
      <trkpt lat="44.31512" lon="0.4722">
        <ele>132.9</ele>
        <time>2024-07-15T09:50:02.759Z</time>
      </trkpt>
      <trkpt lat="44.31479" lon="0.47272">
        <ele>123.2</ele>
        <time>2024-07-15T09:50:58.759Z</time>
      </trkpt>
      <trkpt lat="44.31463" lon="0.47288">
        <ele>119.7</ele>
        <time>2024-07-15T09:51:14.759Z</time>
      </trkpt>
      <trkpt lat="44.31449" lon="0.47297">
        <ele>117.1</ele>
        <time>2024-07-15T09:51:30.759Z</time>
      </trkpt>
      <trkpt lat="44.31434" lon="0.47303">
        <ele>115.2</ele>
        <time>2024-07-15T09:51:46.759Z</time>
      </trkpt>
      <trkpt lat="44.31436" lon="0.47303">
        <ele>115.3</ele>
        <time>2024-07-15T09:52:28.340Z</time>
      </trkpt>
      <trkpt lat="44.3143" lon="0.47308">
        <ele>114.3</ele>
        <time>2024-07-15T09:52:36.340Z</time>
      </trkpt>
      <trkpt lat="44.3142" lon="0.47312">
        <ele>112.9</ele>
        <time>2024-07-15T09:52:44.340Z</time>
      </trkpt>
      <trkpt lat="44.314" lon="0.47315">
        <ele>110.6</ele>
        <time>2024-07-15T09:53:00.340Z</time>
      </trkpt>
      <trkpt lat="44.31362" lon="0.4731">
        <ele>107.8</ele>
        <time>2024-07-15T09:53:32.340Z</time>
      </trkpt>
      <trkpt lat="44.31326" lon="0.47311">
        <ele>102.7</ele>
        <time>2024-07-15T09:54:04.340Z</time>
      </trkpt>
      <trkpt lat="44.31306" lon="0.47308">
        <ele>100</ele>
        <time>2024-07-15T09:54:20.340Z</time>
      </trkpt>
      <trkpt lat="44.31302" lon="0.47306">
        <ele>99.4</ele>
        <time>2024-07-15T09:54:24.340Z</time>
      </trkpt>
      <trkpt lat="44.31299" lon="0.47298">
        <ele>99.2</ele>
        <time>2024-07-15T09:54:28.340Z</time>
      </trkpt>
      <trkpt lat="44.31298" lon="0.47259">
        <ele>98.9</ele>
        <time>2024-07-15T09:54:44.340Z</time>
      </trkpt>
      <trkpt lat="44.31303" lon="0.47214">
        <ele>97.9</ele>
        <time>2024-07-15T09:55:08.340Z</time>
      </trkpt>
      <trkpt lat="44.31309" lon="0.47193">
        <ele>97.3</ele>
        <time>2024-07-15T09:55:36.340Z</time>
      </trkpt>
      <trkpt lat="44.31307" lon="0.47193">
        <ele>97</ele>
        <time>2024-07-15T09:56:13.824Z</time>
      </trkpt>
      <trkpt lat="44.31301" lon="0.47187">
        <ele>95.7</ele>
        <time>2024-07-15T09:56:54.950Z</time>
      </trkpt>
      <trkpt lat="44.31296" lon="0.47186">
        <ele>94.8</ele>
        <time>2024-07-15T09:57:02.950Z</time>
      </trkpt>
      <trkpt lat="44.31288" lon="0.47176">
        <ele>92.9</ele>
        <time>2024-07-15T09:57:23.410Z</time>
      </trkpt>
      <trkpt lat="44.31272" lon="0.47163">
        <ele>90.1</ele>
        <time>2024-07-15T09:57:43.410Z</time>
      </trkpt>
      <trkpt lat="44.31271" lon="0.47151">
        <ele>89.3</ele>
        <time>2024-07-15T09:57:51.410Z</time>
      </trkpt>
      <trkpt lat="44.31272" lon="0.47146">
        <ele>89.1</ele>
        <time>2024-07-15T09:57:55.409Z</time>
      </trkpt>
      <trkpt lat="44.31296" lon="0.47159">
        <ele>92.9</ele>
        <time>2024-07-15T09:58:19.409Z</time>
      </trkpt>
      <trkpt lat="44.31304" lon="0.47156">
        <ele>93.7</ele>
        <time>2024-07-15T09:58:27.410Z</time>
      </trkpt>
      <trkpt lat="44.31329" lon="0.47056">
        <ele>92.5</ele>
        <time>2024-07-15T09:59:38.460Z</time>
      </trkpt>
      <trkpt lat="44.31334" lon="0.47045">
        <ele>93</ele>
        <time>2024-07-15T09:59:46.460Z</time>
      </trkpt>
      <trkpt lat="44.31338" lon="0.47024">
        <ele>93.2</ele>
        <time>2024-07-15T10:00:02.460Z</time>
      </trkpt>
      <trkpt lat="44.31352" lon="0.46976">
        <ele>92.8</ele>
        <time>2024-07-15T10:00:34.460Z</time>
      </trkpt>
      <trkpt lat="44.31354" lon="0.46962">
        <ele>92.5</ele>
        <time>2024-07-15T10:00:42.460Z</time>
      </trkpt>
      <trkpt lat="44.31368" lon="0.46911">
        <ele>92</ele>
        <time>2024-07-15T10:01:14.460Z</time>
      </trkpt>
      <trkpt lat="44.31366" lon="0.4689">
        <ele>90.9</ele>
        <time>2024-07-15T10:01:26.460Z</time>
      </trkpt>
      <trkpt lat="44.31358" lon="0.46881">
        <ele>89.6</ele>
        <time>2024-07-15T10:01:34.460Z</time>
      </trkpt>
      <trkpt lat="44.31353" lon="0.46874">
        <ele>89.1</ele>
        <time>2024-07-15T10:01:42.460Z</time>
      </trkpt>
      <trkpt lat="44.31354" lon="0.46844">
        <ele>89.3</ele>
        <time>2024-07-15T10:02:07.843Z</time>
      </trkpt>
      <trkpt lat="44.31358" lon="0.46829">
        <ele>89.6</ele>
        <time>2024-07-15T10:02:15.843Z</time>
      </trkpt>
      <trkpt lat="44.31366" lon="0.46766">
        <ele>89</ele>
        <time>2024-07-15T10:02:47.843Z</time>
      </trkpt>
      <trkpt lat="44.31386" lon="0.46716">
        <ele>89.2</ele>
        <time>2024-07-15T10:03:19.843Z</time>
      </trkpt>
      <trkpt lat="44.31404" lon="0.46662">
        <ele>87.9</ele>
        <time>2024-07-15T10:03:51.843Z</time>
      </trkpt>
      <trkpt lat="44.3143" lon="0.46619">
        <ele>89.1</ele>
        <time>2024-07-15T10:04:23.843Z</time>
      </trkpt>
      <trkpt lat="44.3144" lon="0.46597">
        <ele>89.8</ele>
        <time>2024-07-15T10:04:39.843Z</time>
      </trkpt>
      <trkpt lat="44.31451" lon="0.46544">
        <ele>90.3</ele>
        <time>2024-07-15T10:05:11.843Z</time>
      </trkpt>
    </trkseg>
  </trk>
</gpx>